createdAt,value
2022-08-26T00:01:56.989Z,27.93
2022-08-26T00:06:59.800Z,27.97
2022-08-26T00:12:05.450Z,27.93
2022-08-26T00:17:08.723Z,27.87
2022-08-26T00:22:12.033Z,27.79
2022-08-26T00:27:16.192Z,27.73
2022-08-26T00:32:20.342Z,27.68
2022-08-26T00:37:23.086Z,27.68
2022-08-26T00:42:29.115Z,27.61
2022-08-26T00:47:35.575Z,27.61
2022-08-26T00:52:41.430Z,27.59
2022-08-26T00:57:50.304Z,27.46
2022-08-26T01:02:55.560Z,27.32
2022-08-26T01:07:58.478Z,27.34
2022-08-26T01:13:09.956Z,27.43
2022-08-26T01:18:15.299Z,27.39
2022-08-26T01:23:19.570Z,27.35
2022-08-26T01:28:29.443Z,27.31
2022-08-26T01:33:42.056Z,27.27
2022-08-26T01:38:46.704Z,27.26
2022-08-26T01:43:53.254Z,27.22
2022-08-26T01:48:59.088Z,27.13
2022-08-26T01:54:03.628Z,27.11
2022-08-26T01:59:12.828Z,27.13
2022-08-26T02:04:22.130Z,27.11
2022-08-26T02:09:26.893Z,27.01
2022-08-26T02:14:34.209Z,26.98
2022-08-26T02:19:42.588Z,27.00
2022-08-26T02:24:50.397Z,27.04
2022-08-26T02:29:56.531Z,26.99
2022-08-26T02:34:59.349Z,26.98
2022-08-26T02:40:05.225Z,26.98
2022-08-26T02:45:09.462Z,26.84
2022-08-26T02:50:12.507Z,26.83
2022-08-26T02:55:17.123Z,26.77
2022-08-26T03:00:20.657Z,26.63
2022-08-26T03:05:24.769Z,26.55
2022-08-26T03:10:31.491Z,26.41
2022-08-26T03:15:35.749Z,26.20
2022-08-26T03:20:40.402Z,26.24
2022-08-26T03:25:50.218Z,26.27
2022-08-26T03:30:53.424Z,26.24
2022-08-26T03:35:56.235Z,26.25
2022-08-26T03:41:01.045Z,26.20
2022-08-26T03:46:05.998Z,26.20
2022-08-26T03:51:13.799Z,26.18
2022-08-26T03:56:22.568Z,26.18
2022-08-26T04:01:25.403Z,26.12
2022-08-26T04:06:31.080Z,25.98
2022-08-26T04:11:39.323Z,25.97
2022-08-26T04:16:43.661Z,26.03
2022-08-26T04:21:47.354Z,25.93
2022-08-26T04:26:52.489Z,25.40
2022-08-26T04:31:56.463Z,25.10
2022-08-26T04:37:00.139Z,25.07
2022-08-26T04:42:04.438Z,24.96
2022-08-26T04:47:07.352Z,24.97
2022-08-26T04:52:10.125Z,24.98
2022-08-26T04:57:14.542Z,24.76
2022-08-26T05:02:18.326Z,24.73
2022-08-26T05:07:21.775Z,24.74
2022-08-26T05:12:27.802Z,24.60
2022-08-26T05:17:31.555Z,24.65
2022-08-26T05:22:34.268Z,24.62
2022-08-26T05:27:38.599Z,24.51
2022-08-26T05:32:41.971Z,24.48
2022-08-26T05:37:45.153Z,24.43
2022-08-26T05:42:49.373Z,24.41
2022-08-26T05:47:52.099Z,24.39
2022-08-26T05:52:54.838Z,24.39
2022-08-26T05:57:59.359Z,24.41
2022-08-26T06:03:05.721Z,24.45
2022-08-26T06:08:13.975Z,24.46
2022-08-26T06:13:20.369Z,24.50
2022-08-26T06:18:27.331Z,24.56
2022-08-26T06:23:49.005Z,24.62
2022-08-26T06:28:53.216Z,24.65
2022-08-26T06:33:56.478Z,24.72
2022-08-26T06:39:01.457Z,24.74
2022-08-26T06:44:08.053Z,24.70
2022-08-26T06:49:11.528Z,24.76
2022-08-26T06:54:14.283Z,24.80
2022-08-26T06:59:18.390Z,24.86
2022-08-26T07:04:23.149Z,24.93
2022-08-26T07:09:30.299Z,24.95
2022-08-26T07:14:35.344Z,25.01
2022-08-26T07:19:38.159Z,25.10
2022-08-26T07:24:42.366Z,25.15
2022-08-26T07:29:46.660Z,25.17
2022-08-26T07:34:50.329Z,25.24
2022-08-26T07:39:53.085Z,25.29
2022-08-26T07:44:57.271Z,25.27
2022-08-26T07:50:00.472Z,25.31
2022-08-26T07:55:04.411Z,25.42
2022-08-26T08:00:13.258Z,25.45
2022-08-26T08:05:20.076Z,25.49
2022-08-26T08:10:27.004Z,25.52
2022-08-26T08:15:33.137Z,25.56
2022-08-26T08:20:38.317Z,25.59
2022-08-26T08:25:41.308Z,25.60
2022-08-26T08:30:45.562Z,25.64
2022-08-26T08:35:48.448Z,25.71
2022-08-26T08:40:52.272Z,25.74
2022-08-26T08:46:01.695Z,25.81
2022-08-26T08:51:23.177Z,25.83
2022-08-26T08:56:31.947Z,25.83
2022-08-26T09:02:02.215Z,25.90
2022-08-26T09:07:09.886Z,25.98
2022-08-26T09:12:20.349Z,25.99
2022-08-26T09:17:37.391Z,26.03
2022-08-26T09:22:41.193Z,26.04
2022-08-26T09:27:50.285Z,26.05
2022-08-26T09:33:01.986Z,26.10
2022-08-26T09:38:22.821Z,26.12
2022-08-26T09:43:30.436Z,26.10
2022-08-26T09:48:37.080Z,26.16
2022-08-26T09:53:53.792Z,26.22
2022-08-26T09:59:12.287Z,26.22
2022-08-26T10:04:24.759Z,26.24
2022-08-26T10:09:31.666Z,26.27
2022-08-26T10:19:57.593Z,26.35
2022-08-26T10:25:03.929Z,26.31
2022-08-26T10:30:11.040Z,26.44
2022-08-26T10:35:17.277Z,26.49
2022-08-26T10:40:26.314Z,26.52
2022-08-26T10:45:33.344Z,26.55
2022-08-26T10:50:39.849Z,26.57
2022-08-26T10:55:51.921Z,26.59
2022-08-26T11:01:22.698Z,26.55
2022-08-26T11:06:29.762Z,26.62
2022-08-26T11:11:51.382Z,26.66
2022-08-26T11:16:56.909Z,26.67
2022-08-26T11:22:06.872Z,26.67
2022-08-26T11:27:12.848Z,26.74
2022-08-26T11:32:26.724Z,26.79
2022-08-26T11:37:37.497Z,26.87
2022-08-26T11:42:49.104Z,26.94
2022-08-26T11:47:52.100Z,27.00
2022-08-26T11:53:01.832Z,27.07
2022-08-26T11:58:07.367Z,27.11
2022-08-26T12:03:18.968Z,27.15
2022-08-26T12:08:28.374Z,27.21
2022-08-26T12:13:31.178Z,27.25
2022-08-26T12:18:37.088Z,27.27
2022-08-26T12:23:47.320Z,27.33
2022-08-26T12:28:53.899Z,27.35
2022-08-26T12:33:59.614Z,27.40
2022-08-26T12:39:12.502Z,27.40
2022-08-26T12:44:36.536Z,27.48
2022-08-26T12:49:40.808Z,27.50
2022-08-26T12:55:02.698Z,27.56
2022-08-26T13:00:33.093Z,27.65
2022-08-26T13:05:37.849Z,27.68
2022-08-26T13:10:44.706Z,27.67
2022-08-26T13:15:47.435Z,27.67
2022-08-26T13:20:50.204Z,27.65
2022-08-26T13:25:54.370Z,27.74
2022-08-26T13:30:57.298Z,27.66
2022-08-26T13:36:00.971Z,27.63
2022-08-26T13:41:05.891Z,27.67
2022-08-26T13:46:08.765Z,27.69
2022-08-26T13:51:12.035Z,27.68
2022-08-26T13:56:16.525Z,27.73
2022-08-26T14:01:19.451Z,27.75
2022-08-26T14:06:22.798Z,27.79
2022-08-26T14:11:27.653Z,27.75
2022-08-26T14:16:34.394Z,27.80
2022-08-26T14:21:39.546Z,27.91
2022-08-26T14:26:43.635Z,27.90
2022-08-26T14:31:46.700Z,27.93
2022-08-26T14:36:49.572Z,28.15
2022-08-26T14:41:57.458Z,28.06
2022-08-26T14:47:03.027Z,28.04
2022-08-26T14:52:05.953Z,28.00
2022-08-26T14:57:12.951Z,28.05
2022-08-26T15:02:27.717Z,28.09
2022-08-26T15:07:36.369Z,28.19
2022-08-26T15:12:41.269Z,28.26
2022-08-26T15:17:44.604Z,28.26
2022-08-26T15:22:48.169Z,28.24
2022-08-26T15:27:52.465Z,28.21
2022-08-26T15:32:55.305Z,28.30
2022-08-26T15:37:58.065Z,28.39
2022-08-26T15:43:18.488Z,28.44
2022-08-26T15:48:26.761Z,28.38
2022-08-26T15:53:31.497Z,28.48
2022-08-26T15:58:36.263Z,28.49
2022-08-26T16:03:39.170Z,28.44
2022-08-26T16:08:42.207Z,28.42
2022-08-26T16:13:46.596Z,28.50
2022-08-26T16:18:49.584Z,28.49
2022-08-26T16:23:52.961Z,28.46
2022-08-26T16:28:57.184Z,28.48
2022-08-26T16:33:59.959Z,28.53
2022-08-26T16:39:03.518Z,28.51
2022-08-26T16:44:08.757Z,28.46
2022-08-26T16:49:11.472Z,28.46
2022-08-26T16:54:14.560Z,28.42
2022-08-26T16:59:18.806Z,28.43
2022-08-26T17:04:21.941Z,28.41
2022-08-26T17:09:25.483Z,28.42
2022-08-26T17:14:29.797Z,28.45
2022-08-26T17:19:34.550Z,28.47
2022-08-26T17:24:49.644Z,28.48
2022-08-26T17:29:53.968Z,28.52
2022-08-26T17:34:56.606Z,28.52
2022-08-26T17:39:59.397Z,28.51
2022-08-26T17:45:03.651Z,28.50
2022-08-26T17:50:10.181Z,28.54
2022-08-26T17:55:16.832Z,28.56
2022-08-26T18:00:26.261Z,28.54
2022-08-26T18:05:29.868Z,28.66
2022-08-26T18:10:32.549Z,28.58
2022-08-26T18:15:39.438Z,28.59
2022-08-26T18:20:44.383Z,28.59
2022-08-26T18:25:47.047Z,28.57
2022-08-26T18:30:51.605Z,28.55
2022-08-26T18:35:54.347Z,28.56
2022-08-26T18:40:57.077Z,28.61
2022-08-26T18:46:05.495Z,28.62
2022-08-26T18:51:12.516Z,28.61
2022-08-26T18:56:18.155Z,28.63
2022-08-26T19:01:27.157Z,28.59
2022-08-26T19:06:32.815Z,28.62
2022-08-26T19:11:37.478Z,28.64
2022-08-26T19:16:48.912Z,28.65
2022-08-26T19:21:51.810Z,28.62
2022-08-26T19:26:58.293Z,28.73
2022-08-26T19:32:03.744Z,28.69
2022-08-26T19:37:06.460Z,28.76
2022-08-26T19:42:09.183Z,28.59
2022-08-26T19:47:13.995Z,28.67
2022-08-26T19:52:17.028Z,28.65
2022-08-26T19:57:19.757Z,28.66
2022-08-26T20:02:23.847Z,28.71
2022-08-26T20:07:26.789Z,28.71
2022-08-26T20:12:31.901Z,28.71
2022-08-26T20:17:36.028Z,28.74
2022-08-26T20:22:38.872Z,28.74
2022-08-26T20:27:41.831Z,28.67
2022-08-26T20:32:46.059Z,28.64
2022-08-26T20:37:48.768Z,28.55
2022-08-26T20:42:51.510Z,28.51
2022-08-26T20:47:55.801Z,28.49
2022-08-26T20:52:58.882Z,28.57
2022-08-26T20:58:01.791Z,28.56
2022-08-26T21:03:06.033Z,28.52
2022-08-26T21:08:09.041Z,28.49
2022-08-26T21:13:14.901Z,28.53
2022-08-26T21:18:18.943Z,28.60
2022-08-26T21:23:23.126Z,28.57
2022-08-26T21:28:27.242Z,28.59
2022-08-26T21:33:31.303Z,28.52
2022-08-26T21:38:36.479Z,28.46
2022-08-26T21:43:40.153Z,28.33
2022-08-26T21:48:49.943Z,28.34
2022-08-26T21:53:53.793Z,28.36
2022-08-26T21:58:59.590Z,28.31
2022-08-26T22:04:04.853Z,28.39
2022-08-26T22:09:07.837Z,28.43
2022-08-26T22:14:11.425Z,28.40
2022-08-26T22:19:17.363Z,28.48
2022-08-26T22:24:22.805Z,28.40
2022-08-26T22:29:25.760Z,28.41
2022-08-26T22:34:30.954Z,28.44
2022-08-26T22:39:33.677Z,28.40
2022-08-26T22:44:37.575Z,28.40
2022-08-26T22:49:41.691Z,28.39
2022-08-26T22:54:45.262Z,28.36
2022-08-26T22:59:48.249Z,28.34
2022-08-26T23:04:52.342Z,28.34
2022-08-26T23:09:55.079Z,28.31
2022-08-26T23:14:57.926Z,28.29
2022-08-26T23:20:02.254Z,28.27
2022-08-26T23:25:08.343Z,28.26
2022-08-26T23:30:16.759Z,28.20
2022-08-26T23:35:21.874Z,28.17
2022-08-26T23:40:28.435Z,28.14
2022-08-26T23:45:32.654Z,28.10
2022-08-26T23:50:54.533Z,28.05
2022-08-26T23:55:57.283Z,28.02
